Time;durP1;ratioP1;P1;durP2;ratioP2;P2;SDS_P1;SDS_P2;PMS_P1;PMS_P2;Temp;Humidity;BMP_temperature;BMP_pressure;BME280_temperature;BME280_humidity;BME280_pressure;Samples;Min_cycle;Max_cycle;Signal;HPM_P1;HPM_P2
2021/08/22 00:02:24;;;;;;;12.50;8.73;;;15.40;99.90;;;;;;4982132;28;20328;-72
2021/08/22 00:04:51;;;;;;;11.00;7.80;;;15.40;99.90;;;;;;4983829;28;20078;-72
2021/08/22 00:07:22;;;;;;;12.93;8.57;;;15.50;99.90;;;;;;4983578;28;20114;-73
2021/08/22 00:09:49;;;;;;;10.45;8.23;;;15.50;99.90;;;;;;4984367;28;20062;-72
2021/08/22 00:12:16;;;;;;;10.75;8.43;;;15.40;99.90;;;;;;4981508;28;20050;-72
2021/08/22 00:14:42;;;;;;;13.88;9.55;;;15.50;99.90;;;;;;4983294;28;20412;-73
2021/08/22 00:17:09;;;;;;;9.15;7.57;;;15.50;99.90;;;;;;4991484;28;20058;-72
2021/08/22 00:19:36;;;;;;;9.13;7.63;;;15.40;99.90;;;;;;4998360;28;20053;-73
2021/08/22 00:22:03;;;;;;;12.20;7.60;;;15.50;99.90;;;;;;4979587;28;20046;-72
2021/08/22 00:24:30;;;;;;;9.30;7.95;;;15.60;99.90;;;;;;4982985;28;20046;-73
2021/08/22 00:26:56;;;;;;;11.23;8.23;;;15.50;99.90;;;;;;4982558;28;20439;-74
2021/08/22 00:29:23;;;;;;;10.90;7.32;;;15.60;99.90;;;;;;4966798;28;20050;-73
2021/08/22 00:31:50;;;;;;;11.88;8.10;;;15.60;99.90;;;;;;4966262;28;20106;-74
2021/08/22 00:34:17;;;;;;;11.30;7.85;;;15.70;99.90;;;;;;4982820;28;20054;-72
2021/08/22 00:36:44;;;;;;;9.70;8.35;;;15.80;99.90;;;;;;4981664;28;20186;-73
2021/08/22 00:39:10;;;;;;;9.52;7.10;;;15.80;99.90;;;;;;4982851;28;20104;-72
2021/08/22 00:41:38;;;;;;;12.30;7.95;;;15.90;99.90;;;;;;4964771;28;20450;-73
2021/08/22 00:44:06;;;;;;;15.73;7.93;;;15.80;99.90;;;;;;4982601;28;20061;-73
2021/08/22 00:46:35;;;;;;;13.00;8.68;;;15.70;99.90;;;;;;4984718;28;20046;-74
2021/08/22 00:49:04;;;;;;;10.27;7.55;;;15.80;99.90;;;;;;4990246;28;20248;-73
2021/08/22 00:51:32;;;;;;;10.15;8.77;;;15.70;99.90;;;;;;4981240;28;20541;-73
2021/08/22 00:53:59;;;;;;;11.32;8.90;;;15.60;99.90;;;;;;4988215;28;20166;-72
2021/08/22 00:56:26;;;;;;;8.82;7.63;;;15.50;99.90;;;;;;4997966;28;20050;-72
2021/08/22 00:58:53;;;;;;;9.75;8.52;;;15.50;99.90;;;;;;4967178;28;20051;-73
2021/08/22 01:01:25;;;;;;;11.23;8.40;;;15.50;99.90;;;;;;4981964;28;20490;-72
2021/08/22 01:04:06;;;;;;;11.05;8.05;;;15.60;99.90;;;;;;4983417;28;20144;-72
2021/08/22 01:06:41;;;;;;;15.25;8.02;;;15.60;99.90;;;;;;4981830;28;20425;-71
2021/08/22 01:09:15;;;;;;;8.82;7.32;;;15.70;99.90;;;;;;4983894;28;20575;-72
2021/08/22 01:11:44;;;;;;;10.40;8.45;;;15.70;99.90;;;;;;5014083;28;20568;-72
2021/08/22 01:14:14;;;;;;;14.02;8.40;;;15.70;99.90;;;;;;4983439;28;20047;-71
2021/08/22 01:16:55;;;;;;;8.68;7.43;;;15.70;99.90;;;;;;4991064;28;20077;-71
2021/08/22 01:19:34;;;;;;;9.43;8.00;;;15.80;99.90;;;;;;4996334;28;20517;-71
2021/08/22 01:22:04;;;;;;;15.80;7.22;;;15.90;99.90;;;;;;4994815;28;20100;-72
2021/08/22 01:24:33;;;;;;;9.70;7.07;;;15.90;99.90;;;;;;4981875;28;20061;-71
2021/08/22 01:27:01;;;;;;;9.55;7.75;;;15.90;99.90;;;;;;4983004;28;20050;-72
2021/08/22 01:29:33;;;;;;;9.57;7.70;;;15.90;99.90;;;;;;4966058;28;20038;-72
2021/08/22 01:32:02;;;;;;;10.95;7.53;;;16.00;99.90;;;;;;4982395;28;20081;-72
2021/08/22 01:34:29;;;;;;;9.75;7.07;;;16.00;99.90;;;;;;4982959;28;20525;-72
2021/08/22 01:36:57;;;;;;;8.60;6.95;;;16.10;99.90;;;;;;4981319;28;20105;-72
2021/08/22 01:39:25;;;;;;;12.80;7.30;;;16.10;99.90;;;;;;4982662;28;20426;-71
2021/08/22 01:41:53;;;;;;;9.38;7.13;;;16.10;99.90;;;;;;4982804;28;20061;-73
2021/08/22 01:44:20;;;;;;;11.00;6.88;;;16.10;99.90;;;;;;4980928;28;20113;-73
2021/08/22 01:46:48;;;;;;;9.68;7.30;;;16.20;99.90;;;;;;4988768;28;20045;-73
2021/08/22 01:49:18;;;;;;;7.88;6.82;;;16.30;99.90;;;;;;4981730;28;20558;-72
2021/08/22 01:51:46;;;;;;;9.43;6.40;;;16.40;99.90;;;;;;4982744;28;20067;-73
2021/08/22 01:54:12;;;;;;;10.60;7.18;;;16.40;99.90;;;;;;4980942;28;20062;-71
2021/08/22 01:56:41;;;;;;;9.25;7.57;;;16.40;99.90;;;;;;4981660;28;20049;-72
2021/08/22 01:59:08;;;;;;;9.07;7.05;;;16.40;99.90;;;;;;4989695;28;20054;-71
2021/08/22 02:01:36;;;;;;;13.13;6.47;;;16.40;99.90;;;;;;4984870;28;20105;-73
2021/08/22 02:04:26;;;;;;;10.80;6.60;;;16.50;99.90;;;;;;4953615;28;20054;-71
2021/08/22 02:07:00;;;;;;;9.57;6.80;;;16.50;99.90;;;;;;4986374;28;20411;-71
2021/08/22 02:10:12;;;;;;;8.35;6.65;;;16.60;99.90;;;;;;4975696;28;20132;-75
2021/08/22 02:12:39;;;;;;;8.13;6.75;;;16.60;99.90;;;;;;4963203;28;20380;-72
2021/08/22 02:15:25;;;;;;;8.27;6.80;;;16.70;99.90;;;;;;4985248;28;20055;-72
2021/08/22 02:17:59;;;;;;;7.50;6.10;;;16.90;99.90;;;;;;4994415;28;20118;-73
2021/08/22 02:20:26;;;;;;;8.38;7.47;;;16.80;99.90;;;;;;4989718;28;20075;-73
2021/08/22 02:22:54;;;;;;;11.18;8.75;;;16.70;99.90;;;;;;4968739;28;20084;-73
2021/08/22 02:25:22;;;;;;;12.23;8.32;;;16.80;99.90;;;;;;4983398;28;20542;-71
2021/08/22 02:27:49;;;;;;;11.57;7.85;;;16.80;99.90;;;;;;4985048;28;20318;-72
2021/08/22 02:30:16;;;;;;;10.98;8.05;;;16.80;99.90;;;;;;4952358;28;20050;-73
2021/08/22 02:32:43;;;;;;;13.18;8.18;;;16.90;99.90;;;;;;4985390;28;20061;-72
2021/08/22 02:35:09;;;;;;;10.60;7.95;;;16.90;99.90;;;;;;4985201;28;20154;-72
2021/08/22 02:37:36;;;;;;;11.07;6.93;;;17.00;99.90;;;;;;5001377;28;20368;-73
2021/08/22 02:40:04;;;;;;;12.85;8.98;;;17.00;99.90;;;;;;4983971;28;20455;-74
2021/08/22 02:42:31;;;;;;;13.73;9.30;;;17.10;99.90;;;;;;4985004;28;20121;-73
2021/08/22 02:44:57;;;;;;;10.98;9.00;;;17.20;99.90;;;;;;4986311;28;20116;-73
2021/08/22 02:47:24;;;;;;;21.45;9.45;;;17.20;99.90;;;;;;4991510;28;20420;-73
2021/08/22 02:49:51;;;;;;;12.50;9.30;;;17.20;99.90;;;;;;4995189;28;20144;-72
2021/08/22 02:52:18;;;;;;;12.18;8.77;;;17.30;99.90;;;;;;4984473;28;20042;-71
2021/08/22 02:54:45;;;;;;;11.20;8.55;;;17.30;99.90;;;;;;4987722;28;20051;-72
2021/08/22 02:57:11;;;;;;;14.00;9.20;;;17.30;99.90;;;;;;4984203;28;20412;-72
2021/08/22 02:59:38;;;;;;;13.32;10.20;;;17.20;99.90;;;;;;5000347;28;20050;-71
2021/08/22 03:02:05;;;;;;;12.57;10.82;;;17.30;99.90;;;;;;4988247;28;20050;-72
2021/08/22 03:04:32;;;;;;;15.23;11.15;;;17.30;99.90;;;;;;4968031;28;20046;-73
2021/08/22 03:06:59;;;;;;;16.45;10.80;;;17.30;99.90;;;;;;4987776;28;20921;-71
2021/08/22 03:09:25;;;;;;;16.63;11.73;;;17.20;99.90;;;;;;4999597;28;20515;-73
2021/08/22 03:11:52;;;;;;;13.63;10.98;;;17.20;99.90;;;;;;4999503;28;20051;-72
2021/08/22 03:14:19;;;;;;;14.18;11.18;;;17.10;99.90;;;;;;4967099;28;20054;-72
2021/08/22 03:16:46;;;;;;;13.55;11.27;;;17.10;99.90;;;;;;4973520;28;20417;-72
2021/08/22 03:19:13;;;;;;;15.15;10.55;;;17.00;99.90;;;;;;4995732;28;20049;-73
2021/08/22 03:21:42;;;;;;;19.45;10.95;;;16.90;99.90;;;;;;4997738;28;20474;-73
2021/08/22 03:24:08;;;;;;;21.75;13.13;;;16.80;99.90;;;;;;4983884;28;20468;-73
2021/08/22 03:26:35;;;;;;;39.00;17.80;;;16.80;99.90;;;;;;4967046;28;20054;-74
2021/08/22 03:29:02;;;;;;;25.40;17.02;;;16.60;99.90;;;;;;4951447;28;20042;-72
2021/08/22 03:31:29;;;;;;;32.35;16.05;;;16.40;99.90;;;;;;4984806;28;20069;-73
2021/08/22 03:33:56;;;;;;;22.35;16.70;;;16.30;99.90;;;;;;4983825;28;20054;-73
2021/08/22 03:36:23;;;;;;;19.52;14.60;;;16.30;99.90;;;;;;4951013;28;20387;-72
2021/08/22 03:38:49;;;;;;;20.13;14.57;;;16.30;99.90;;;;;;4984090;28;20054;-72
2021/08/22 03:41:16;;;;;;;22.45;16.45;;;16.40;99.90;;;;;;4983416;28;20054;-72
2021/08/22 03:43:43;;;;;;;25.75;17.92;;;16.40;99.90;;;;;;4967734;28;20066;-72
2021/08/22 03:46:10;;;;;;;25.95;18.60;;;16.40;99.90;;;;;;4985194;28;20050;-72
2021/08/22 03:48:36;;;;;;;29.55;19.45;;;16.50;99.90;;;;;;4991519;28;20352;-71
2021/08/22 03:51:03;;;;;;;26.42;18.10;;;16.50;99.90;;;;;;4978134;28;20299;-72
2021/08/22 03:53:30;;;;;;;29.38;19.70;;;16.50;99.90;;;;;;4984829;28;20506;-73
2021/08/22 03:55:57;;;;;;;38.10;21.50;;;16.60;99.90;;;;;;4990621;28;20108;-72
2021/08/22 03:58:23;;;;;;;36.60;20.42;;;16.70;99.90;;;;;;4994109;28;20063;-74
2021/08/22 04:00:50;;;;;;;24.63;17.10;;;16.70;99.90;;;;;;4994151;28;20049;-72
2021/08/22 04:03:17;;;;;;;21.10;14.88;;;16.60;99.90;;;;;;4989260;28;20158;-70
2021/08/22 04:06:05;;;;;;;21.60;14.93;;;16.60;99.90;;;;;;4982082;28;20049;-71
2021/08/22 04:08:35;;;;;;;21.00;14.23;;;16.50;99.90;;;;;;4966668;28;20278;-72
2021/08/22 04:11:02;;;;;;;19.92;14.35;;;16.50;99.90;;;;;;4983605;28;20579;-71
2021/08/22 04:13:29;;;;;;;20.95;15.20;;;16.50;99.90;;;;;;4982608;28;20072;-72
2021/08/22 04:15:56;;;;;;;23.63;15.25;;;16.60;99.90;;;;;;4984778;28;20050;-73
2021/08/22 04:18:22;;;;;;;20.48;13.43;;;16.60;99.90;;;;;;4993955;28;20058;-72
2021/08/22 04:20:49;;;;;;;24.25;13.82;;;16.60;99.90;;;;;;4985323;28;20041;-72
2021/08/22 04:23:16;;;;;;;23.67;15.82;;;16.50;99.90;;;;;;4985361;28;20112;-71
2021/08/22 04:25:43;;;;;;;24.98;16.50;;;16.50;99.90;;;;;;4994937;28;20070;-71
2021/08/22 04:28:11;;;;;;;25.75;17.23;;;16.40;99.90;;;;;;4972155;28;20047;-73
2021/08/22 04:30:38;;;;;;;29.55;17.50;;;16.50;99.90;;;;;;4980956;28;20050;-71
2021/08/22 04:33:04;;;;;;;21.08;14.07;;;16.40;99.90;;;;;;4965924;28;20555;-72
2021/08/22 04:35:31;;;;;;;22.92;15.23;;;16.40;99.90;;;;;;4981806;28;20415;-71
2021/08/22 04:37:58;;;;;;;29.88;17.48;;;16.40;99.90;;;;;;4984757;28;20054;-72
2021/08/22 04:40:25;;;;;;;18.58;13.02;;;16.40;99.90;;;;;;4982608;28;20057;-71
2021/08/22 04:42:51;;;;;;;18.50;12.20;;;16.40;99.90;;;;;;4966438;28;20054;-72
2021/08/22 04:45:19;;;;;;;17.48;10.93;;;16.40;99.90;;;;;;4980012;28;20058;-71
2021/08/22 04:47:45;;;;;;;18.55;12.18;;;16.40;99.90;;;;;;4991425;28;20046;-72
2021/08/22 04:50:12;;;;;;;19.45;13.30;;;16.40;99.90;;;;;;5000015;28;20088;-73
2021/08/22 04:52:39;;;;;;;20.98;13.57;;;16.40;99.90;;;;;;4990441;28;20039;-71
2021/08/22 04:55:07;;;;;;;24.33;15.32;;;16.40;99.90;;;;;;4981846;28;20575;-72
2021/08/22 04:57:34;;;;;;;21.92;14.63;;;16.30;99.90;;;;;;4962320;28;20043;-70
2021/08/22 05:00:01;;;;;;;27.48;17.13;;;16.30;99.90;;;;;;4964111;28;20242;-71
2021/08/22 05:02:28;;;;;;;27.88;17.67;;;16.30;99.90;;;;;;4981163;28;20069;-72
2021/08/22 05:04:55;;;;;;;24.15;16.52;;;16.20;99.90;;;;;;4981340;28;20594;-72
2021/08/22 05:07:22;;;;;;;24.92;15.57;;;16.30;99.90;;;;;;4964955;28;20050;-71
2021/08/22 05:09:48;;;;;;;22.52;15.38;;;16.30;99.90;;;;;;4981965;28;20133;-72
2021/08/22 05:12:15;;;;;;;21.48;14.48;;;16.30;99.90;;;;;;4981314;28;20260;-73
2021/08/22 05:14:42;;;;;;;25.73;15.23;;;16.30;99.90;;;;;;4985955;28;20042;-73
2021/08/22 05:17:09;;;;;;;28.30;16.35;;;16.40;99.90;;;;;;4989453;28;20058;-71
2021/08/22 05:19:36;;;;;;;24.55;16.00;;;16.40;99.90;;;;;;4987980;28;20054;-73
2021/08/22 05:22:03;;;;;;;23.98;15.25;;;16.30;99.90;;;;;;4964527;28;20124;-72
2021/08/22 05:24:30;;;;;;;24.13;15.13;;;16.40;99.90;;;;;;4956719;28;20295;-72
2021/08/22 05:26:57;;;;;;;25.13;16.85;;;16.50;99.90;;;;;;4982517;28;20549;-72
2021/08/22 05:29:24;;;;;;;24.75;15.75;;;16.60;99.90;;;;;;4981633;28;20537;-72
2021/08/22 05:31:50;;;;;;;22.38;15.75;;;16.50;99.90;;;;;;4995937;28;20620;-73
2021/08/22 05:34:17;;;;;;;24.25;16.13;;;16.50;99.90;;;;;;4981592;28;20054;-70
2021/08/22 05:36:44;;;;;;;24.30;16.35;;;16.50;99.90;;;;;;4985074;28;20046;-71
2021/08/22 05:39:11;;;;;;;26.63;17.08;;;16.60;99.90;;;;;;4985367;28;20580;-71
2021/08/22 05:41:38;;;;;;;23.63;15.27;;;16.50;99.90;;;;;;4968574;28;20058;-72
2021/08/22 05:44:04;;;;;;;23.88;16.00;;;16.60;99.90;;;;;;4969482;28;20293;-72
2021/08/22 05:46:32;;;;;;;23.00;16.17;;;16.70;99.90;;;;;;4986312;28;20054;-72
2021/08/22 05:48:59;;;;;;;26.30;16.95;;;16.70;99.90;;;;;;4995835;28;20046;-70
2021/08/22 05:51:26;;;;;;;26.63;16.45;;;16.60;99.90;;;;;;5003218;28;20057;-70
2021/08/22 05:53:53;;;;;;;24.73;16.50;;;16.70;99.90;;;;;;4974859;28;20043;-72
2021/08/22 05:56:20;;;;;;;23.88;16.48;;;16.80;99.90;;;;;;4984632;28;20077;-70
2021/08/22 05:58:48;;;;;;;25.42;17.13;;;16.80;99.90;;;;;;4984869;28;20058;-71
2021/08/22 06:01:15;;;;;;;18.83;13.02;;;16.80;99.90;;;;;;4971777;28;20057;-71
2021/08/22 06:03:42;;;;;;;19.40;13.77;;;16.80;99.90;;;;;;4986447;28;20066;-73
2021/08/22 06:06:10;;;;;;;21.85;15.57;;;16.70;99.90;;;;;;4985185;28;20129;-71
2021/08/22 06:08:37;;;;;;;18.00;13.50;;;16.60;99.90;;;;;;4971272;28;20114;-72
2021/08/22 06:11:04;;;;;;;22.17;14.07;;;16.60;99.90;;;;;;4967007;28;20045;-72
2021/08/22 06:13:31;;;;;;;19.95;14.15;;;16.60;99.90;;;;;;4986025;28;20054;-72
2021/08/22 06:15:58;;;;;;;21.70;15.10;;;16.60;99.90;;;;;;4986520;28;20161;-71
2021/08/22 06:18:25;;;;;;;19.92;13.65;;;16.60;99.90;;;;;;4978930;28;20643;-72
2021/08/22 06:20:52;;;;;;;19.10;14.02;;;16.60;99.90;;;;;;4983784;28;20368;-71
2021/08/22 06:23:19;;;;;;;17.25;14.02;;;16.70;99.90;;;;;;4987587;28;20058;-72
2021/08/22 06:25:45;;;;;;;20.63;13.70;;;16.70;99.90;;;;;;4990360;28;20299;-71
2021/08/22 06:28:15;;;;;;;18.38;13.48;;;16.70;99.90;;;;;;4983894;28;20148;-71
2021/08/22 06:30:42;;;;;;;22.27;15.25;;;16.70;99.90;;;;;;4984633;28;20046;-72
2021/08/22 06:33:10;;;;;;;24.00;15.40;;;16.70;99.90;;;;;;4984601;28;20133;-71
2021/08/22 06:35:37;;;;;;;21.90;15.35;;;16.70;99.90;;;;;;4999865;28;20048;-71
2021/08/22 06:38:04;;;;;;;22.88;16.10;;;16.70;99.90;;;;;;4982358;28;20084;-71
2021/08/22 06:40:31;;;;;;;25.80;15.82;;;16.80;99.90;;;;;;4988466;28;20034;-72
2021/08/22 06:42:58;;;;;;;24.98;16.08;;;16.80;99.90;;;;;;4985280;28;20554;-72
2021/08/22 06:45:25;;;;;;;23.23;17.48;;;16.80;99.90;;;;;;4984256;28;20078;-70
2021/08/22 06:47:53;;;;;;;25.95;16.88;;;16.80;99.90;;;;;;4991663;28;20049;-71
2021/08/22 06:50:23;;;;;;;26.10;17.92;;;16.80;99.90;;;;;;4982408;28;20058;-73
2021/08/22 06:52:52;;;;;;;28.75;18.38;;;16.80;99.90;;;;;;4987345;28;20077;-72
2021/08/22 06:55:20;;;;;;;28.55;17.85;;;16.90;99.90;;;;;;4984507;28;20046;-71
2021/08/22 06:57:48;;;;;;;33.13;20.35;;;16.80;99.90;;;;;;4983893;28;20149;-72
2021/08/22 07:00:17;;;;;;;31.73;20.65;;;16.70;99.90;;;;;;4983789;28;20467;-71
2021/08/22 07:02:44;;;;;;;33.38;22.33;;;16.80;99.90;;;;;;4984633;28;20426;-73
2021/08/22 07:05:12;;;;;;;33.20;21.05;;;16.80;99.90;;;;;;4984770;28;20092;-72
2021/08/22 07:07:39;;;;;;;36.15;22.25;;;16.80;99.90;;;;;;4986858;28;20125;-71
2021/08/22 07:10:08;;;;;;;39.53;25.25;;;16.90;99.90;;;;;;4985621;28;20700;-73
2021/08/22 07:12:34;;;;;;;38.95;24.50;;;17.00;99.90;;;;;;4984909;28;20573;-72
2021/08/22 07:15:02;;;;;;;40.60;26.33;;;17.00;99.90;;;;;;4989126;28;20053;-70
2021/08/22 07:17:29;;;;;;;42.83;25.85;;;17.00;99.90;;;;;;4993507;28;20056;-71
2021/08/22 07:19:57;;;;;;;48.22;29.75;;;17.00;99.90;;;;;;5004661;28;20053;-71
2021/08/22 07:22:23;;;;;;;47.88;26.65;;;17.00;99.90;;;;;;4993728;28;20601;-72
2021/08/22 07:24:50;;;;;;;48.70;28.70;;;17.10;99.90;;;;;;4983530;28;20050;-72
2021/08/22 07:27:17;;;;;;;47.50;27.35;;;17.10;99.90;;;;;;4982661;28;20097;-71
2021/08/22 07:29:44;;;;;;;54.65;30.48;;;17.10;99.90;;;;;;4985368;28;20062;-72
2021/08/22 07:32:11;;;;;;;44.30;28.58;;;17.20;99.90;;;;;;4978378;28;20104;-71
2021/08/22 07:34:38;;;;;;;48.50;30.02;;;17.20;99.90;;;;;;4978529;28;20693;-70
2021/08/22 07:37:07;;;;;;;50.50;29.83;;;17.10;99.90;;;;;;5002957;28;20065;-71
2021/08/22 07:39:34;;;;;;;53.30;32.15;;;17.10;99.90;;;;;;4987640;28;20077;-70
2021/08/22 07:42:02;;;;;;;52.58;32.13;;;17.20;99.90;;;;;;5002374;28;20046;-70
2021/08/22 07:44:29;;;;;;;57.38;35.38;;;17.20;99.90;;;;;;4990318;28;20104;-72
2021/08/22 07:46:55;;;;;;;61.67;36.05;;;17.20;99.90;;;;;;4991697;28;20057;-72
2021/08/22 07:49:22;;;;;;;54.60;33.85;;;17.30;99.90;;;;;;5003881;28;20249;-72
2021/08/22 07:51:49;;;;;;;57.88;35.92;;;17.30;99.90;;;;;;4979438;28;20371;-71
2021/08/22 07:54:16;;;;;;;46.15;32.67;;;17.30;99.90;;;;;;4950277;28;20205;-71
2021/08/22 07:56:44;;;;;;;47.03;32.85;;;17.20;99.90;;;;;;4982198;28;20049;-70
2021/08/22 07:59:11;;;;;;;52.25;32.47;;;17.20;99.90;;;;;;4966272;28;20073;-71
2021/08/22 08:01:38;;;;;;;47.38;32.90;;;17.20;99.90;;;;;;4951602;28;20558;-71
2021/08/22 08:04:06;;;;;;;49.97;34.38;;;17.20;99.90;;;;;;4995192;28;20042;-72
2021/08/22 08:06:33;;;;;;;56.47;33.95;;;17.10;99.90;;;;;;4962904;28;20113;-70
2021/08/22 08:09:00;;;;;;;50.70;33.10;;;17.20;99.90;;;;;;4977975;28;20050;-75
2021/08/22 08:11:27;;;;;;;52.65;33.92;;;17.30;99.90;;;;;;4964075;28;20542;-70
2021/08/22 08:13:54;;;;;;;46.47;31.85;;;17.30;99.90;;;;;;4980771;28;20058;-72
2021/08/22 08:16:20;;;;;;;42.88;31.13;;;17.40;99.90;;;;;;4989070;28;20301;-72
2021/08/22 08:18:47;;;;;;;47.78;31.35;;;17.40;99.90;;;;;;4965333;28;20097;-70
2021/08/22 08:21:15;;;;;;;53.70;33.88;;;17.30;99.90;;;;;;4982696;28;20287;-70
2021/08/22 08:23:42;;;;;;;48.63;31.63;;;17.40;99.90;;;;;;4982776;28;20062;-72
2021/08/22 08:26:09;;;;;;;48.58;32.65;;;17.30;99.90;;;;;;4982898;28;20117;-72
2021/08/22 08:28:36;;;;;;;55.97;34.75;;;17.30;99.90;;;;;;4984181;28;20061;-71
2021/08/22 08:31:03;;;;;;;48.17;32.60;;;17.50;99.90;;;;;;4981663;28;20076;-73
2021/08/22 08:33:30;;;;;;;44.28;30.70;;;17.50;99.90;;;;;;4983239;28;20438;-72
2021/08/22 08:35:57;;;;;;;43.95;30.80;;;17.50;99.90;;;;;;4998878;28;20038;-73
2021/08/22 08:38:23;;;;;;;43.97;31.02;;;17.50;99.90;;;;;;4982696;28;20135;-73
2021/08/22 08:40:50;;;;;;;41.72;29.15;;;17.50;99.90;;;;;;4982327;28;20050;-71
2021/08/22 08:43:17;;;;;;;42.15;29.85;;;17.60;99.90;;;;;;4983152;28;20529;-73
2021/08/22 08:45:49;;;;;;;35.25;24.42;;;17.80;99.90;;;;;;4986515;28;20457;-73
2021/08/22 08:48:23;;;;;;;31.45;24.50;;;17.90;99.90;;;;;;4998176;28;20488;-73
2021/08/22 08:51:02;;;;;;;29.52;22.52;;;18.10;99.90;;;;;;5001262;28;20052;-73
2021/08/22 08:53:57;;;;;;;29.45;23.42;;;18.20;99.90;;;;;;4982083;28;20047;-72
2021/08/22 08:56:43;;;;;;;28.13;22.80;;;18.40;99.90;;;;;;4995412;28;20055;-73
2021/08/22 08:59:11;;;;;;;28.95;22.65;;;18.70;99.90;;;;;;4984321;28;20134;-73
2021/08/22 09:01:39;;;;;;;30.70;23.58;;;18.80;99.90;;;;;;4983846;28;20073;-73
2021/08/22 09:04:26;;;;;;;27.40;21.25;;;18.90;99.90;;;;;;4985454;28;20121;-73
2021/08/22 09:07:32;;;;;;;27.10;22.02;;;19.00;99.90;;;;;;4965374;28;20054;-71
2021/08/22 09:10:17;;;;;;;22.80;18.02;;;19.30;99.90;;;;;;4949314;28;20140;-73
2021/08/22 09:13:21;;;;;;;23.73;18.27;;;19.40;99.90;;;;;;4950912;28;20057;-73
2021/08/22 09:16:00;;;;;;;22.55;17.98;;;19.50;99.90;;;;;;4984241;28;20050;-73
2021/08/22 09:18:48;;;;;;;21.38;17.67;;;19.30;99.90;;;;;;4990128;28;20174;-72
2021/08/22 09:21:33;;;;;;;21.55;17.38;;;19.40;99.90;;;;;;4985868;28;20370;-71
2021/08/22 09:24:31;;;;;;;18.65;15.77;;;19.40;99.90;;;;;;4986464;28;20057;-73
2021/08/22 09:27:36;;;;;;;20.98;14.55;;;19.30;99.90;;;;;;4967917;28;20049;-74
2021/08/22 09:30:30;;;;;;;18.45;13.80;;;19.20;99.90;;;;;;4986705;28;20058;-71
2021/08/22 09:33:18;;;;;;;17.52;14.68;;;19.40;99.90;;;;;;4986552;28;20120;-73
2021/08/22 09:36:22;;;;;;;18.85;14.95;;;19.40;99.90;;;;;;4982337;28;20062;-74
2021/08/22 09:39:27;;;;;;;14.50;13.00;;;19.40;99.90;;;;;;4982593;28;20055;-73
2021/08/22 09:42:31;;;;;;;16.27;14.13;;;19.40;99.90;;;;;;4967064;28;20055;-73
2021/08/22 09:45:35;;;;;;;18.70;15.10;;;19.60;99.90;;;;;;4989383;28;20041;-73
2021/08/22 09:48:40;;;;;;;17.70;14.27;;;19.70;99.90;;;;;;5000909;28;20042;-72
2021/08/22 09:51:28;;;;;;;20.73;14.97;;;19.70;99.90;;;;;;5005262;28;20046;-73
2021/08/22 09:54:32;;;;;;;14.82;13.18;;;19.80;99.90;;;;;;4984892;28;20305;-73
2021/08/22 09:57:40;;;;;;;13.73;12.27;;;19.90;99.90;;;;;;4969334;28;20212;-73
2021/08/22 10:00:29;;;;;;;16.48;13.43;;;20.20;99.90;;;;;;4984893;28;20396;-73
2021/08/22 10:03:14;;;;;;;13.13;11.73;;;20.60;99.90;;;;;;4985723;28;20064;-72
2021/08/22 10:06:12;;;;;;;13.90;12.23;;;20.90;99.90;;;;;;4984367;28;20138;-73
2021/08/22 10:08:57;;;;;;;11.18;10.07;;;21.00;99.90;;;;;;4952469;28;20058;-72
2021/08/22 10:12:05;;;;;;;14.02;11.15;;;20.70;99.90;;;;;;4984380;28;20058;-73
2021/08/22 10:14:36;;;;;;;12.55;10.88;;;20.70;99.90;;;;;;4976185;28;20042;-72
2021/08/22 10:17:03;;;;;;;13.88;10.68;;;20.70;99.90;;;;;;4992453;28;20046;-72
2021/08/22 10:19:30;;;;;;;11.45;9.70;;;20.90;99.90;;;;;;4982342;28;20046;-73
2021/08/22 10:22:11;;;;;;;12.70;10.95;;;20.70;99.90;;;;;;4985094;28;20064;-72
2021/08/22 10:24:38;;;;;;;12.93;11.27;;;20.60;99.90;;;;;;4981713;28;20046;-73
2021/08/22 10:27:06;;;;;;;12.95;11.38;;;20.60;99.90;;;;;;4983867;28;20104;-74
2021/08/22 10:30:02;;;;;;;13.68;11.10;;;20.40;99.90;;;;;;4984193;28;20344;-73
2021/08/22 10:32:31;;;;;;;14.68;12.52;;;20.30;99.90;;;;;;4980899;28;20058;-71
2021/08/22 10:35:13;;;;;;;13.70;11.02;;;20.30;99.90;;;;;;4985241;28;20394;-72
2021/08/22 10:37:41;;;;;;;16.45;13.07;;;20.40;99.90;;;;;;4985705;28;20054;-72
2021/08/22 10:40:26;;;;;;;13.65;11.18;;;20.40;99.90;;;;;;4984644;28;20109;-72
2021/08/22 10:42:56;;;;;;;16.08;11.90;;;20.40;99.90;;;;;;4968544;28;20491;-74
2021/08/22 10:45:52;;;;;;;14.02;12.30;;;20.30;99.90;;;;;;4971961;28;20046;-73
2021/08/22 10:48:24;;;;;;;19.08;13.27;;;20.30;99.90;;;;;;4988483;28;20264;-73
2021/08/22 10:50:58;;;;;;;19.70;14.13;;;20.30;99.90;;;;;;4982137;28;20232;-74
2021/08/22 10:53:26;;;;;;;13.98;12.57;;;20.40;99.90;;;;;;4977737;28;20050;-74
2021/08/22 10:55:54;;;;;;;13.85;11.85;;;20.50;99.90;;;;;;5005030;28;20088;-74
2021/08/22 10:58:22;;;;;;;18.52;13.70;;;20.60;99.90;;;;;;5000797;28;20174;-73
2021/08/22 11:00:49;;;;;;;15.57;13.90;;;20.70;99.90;;;;;;4966124;28;20049;-73
2021/08/22 11:03:20;;;;;;;17.17;14.18;;;20.70;99.90;;;;;;4999476;28;20572;-74
2021/08/22 11:05:48;;;;;;;18.23;13.38;;;20.70;99.90;;;;;;4982429;28;20136;-73
2021/08/22 11:08:18;;;;;;;17.70;14.05;;;20.80;99.90;;;;;;4984312;28;20077;-74
2021/08/22 11:11:01;;;;;;;17.38;14.38;;;20.70;99.90;;;;;;5015546;28;20060;-74
2021/08/22 11:13:30;;;;;;;15.98;13.20;;;20.70;99.90;;;;;;4985096;28;20314;-74
2021/08/22 11:16:07;;;;;;;18.05;13.73;;;20.70;99.90;;;;;;4990448;28;20050;-72
2021/08/22 11:18:35;;;;;;;17.23;12.77;;;20.70;99.90;;;;;;4982392;28;20046;-73
2021/08/22 11:21:03;;;;;;;13.43;11.00;;;20.80;99.90;;;;;;4993127;28;20042;-74
2021/08/22 11:23:30;;;;;;;10.82;9.63;;;20.90;99.90;;;;;;4985153;28;20093;-73
2021/08/22 11:26:06;;;;;;;11.60;10.38;;;20.80;99.90;;;;;;4984870;28;20050;-74
2021/08/22 11:28:33;;;;;;;12.63;11.23;;;20.70;99.90;;;;;;4983405;28;20054;-74
2021/08/22 11:31:00;;;;;;;11.55;10.27;;;20.60;99.90;;;;;;4984540;28;20202;-74
2021/08/22 11:33:29;;;;;;;12.88;10.43;;;20.60;99.90;;;;;;4967425;28;20055;-74
2021/08/22 11:35:56;;;;;;;12.32;9.40;;;20.70;99.90;;;;;;4982439;28;20585;-74
2021/08/22 11:38:22;;;;;;;11.18;10.07;;;20.80;99.90;;;;;;4967843;28;20272;-74
2021/08/22 11:40:49;;;;;;;14.70;11.05;;;20.90;99.90;;;;;;4983417;28;20046;-74
2021/08/22 11:43:16;;;;;;;13.07;10.20;;;21.00;99.90;;;;;;4983238;28;20541;-74
2021/08/22 11:45:45;;;;;;;10.45;9.10;;;21.30;99.90;;;;;;4987439;28;20046;-74
2021/08/22 11:48:22;;;;;;;9.98;8.82;;;21.40;99.90;;;;;;4991240;28;20575;-74
2021/08/22 11:50:50;;;;;;;10.85;9.55;;;21.20;99.90;;;;;;4968737;28;20258;-74
2021/08/22 11:53:18;;;;;;;10.30;8.10;;;21.30;99.90;;;;;;4980105;28;20050;-73
2021/08/22 11:55:45;;;;;;;10.07;9.13;;;21.30;99.90;;;;;;5003611;28;20050;-74
2021/08/22 11:58:14;;;;;;;11.38;8.68;;;21.10;99.90;;;;;;4996923;28;20076;-74
2021/08/22 12:00:47;;;;;;;8.95;8.05;;;21.40;99.90;;;;;;4993727;28;20046;-74
2021/08/22 12:03:16;;;;;;;9.75;8.75;;;21.70;99.90;;;;;;4984442;28;20149;-74
2021/08/22 12:05:55;;;;;;;10.15;9.15;;;21.80;99.90;;;;;;4966060;28;20045;-74
2021/08/22 12:08:27;;;;;;;11.15;8.95;;;21.80;99.90;;;;;;4984400;28;20054;-74
2021/08/22 12:11:08;;;;;;;9.30;8.50;;;21.70;99.90;;;;;;4966271;28;20053;-74
2021/08/22 12:13:37;;;;;;;11.05;9.95;;;21.70;99.90;;;;;;4999332;28;20046;-72
2021/08/22 12:16:23;;;;;;;11.15;10.05;;;21.60;99.90;;;;;;4990494;28;20046;-72
2021/08/22 12:18:51;;;;;;;10.32;9.32;;;21.50;99.90;;;;;;4981287;28;20584;-73
2021/08/22 12:21:21;;;;;;;11.20;10.10;;;21.40;99.90;;;;;;4948597;28;20058;-74
2021/08/22 12:23:50;;;;;;;10.60;9.60;;;21.30;99.90;;;;;;4982978;28;20062;-73
2021/08/22 12:26:33;;;;;;;12.27;10.65;;;21.30;99.90;;;;;;4983446;28;20081;-72
2021/08/22 12:29:09;;;;;;;11.50;10.38;;;21.30;99.90;;;;;;4982161;28;20153;-73
2021/08/22 12:31:38;;;;;;;10.85;9.80;;;21.20;99.90;;;;;;4983611;28;20371;-74
2021/08/22 12:34:11;;;;;;;10.75;9.70;;;21.20;99.90;;;;;;4965856;28;20060;-73
2021/08/22 12:36:39;;;;;;;11.05;9.77;;;21.50;99.90;;;;;;4983945;28;20542;-73
2021/08/22 12:39:09;;;;;;;12.00;10.13;;;21.60;99.90;;;;;;5015815;28;20105;-73
2021/08/22 12:41:46;;;;;;;12.40;11.18;;;21.50;99.90;;;;;;5012987;28;20246;-73
2021/08/22 12:44:27;;;;;;;11.80;10.77;;;21.40;99.90;;;;;;4949271;28;20141;-72
2021/08/22 12:46:56;;;;;;;12.00;10.93;;;21.80;99.90;;;;;;4993035;28;20112;-72
2021/08/22 12:49:29;;;;;;;11.90;10.77;;;22.30;99.90;;;;;;4967060;28;20169;-74
2021/08/22 12:52:07;;;;;;;12.27;11.10;;;22.20;99.90;;;;;;4969380;28;20062;-74